Flight Track Log - Related Links

Times and Time Zones

All times are in EDT time to prevent confusion due to time zone crossing. See the ASQ3813 flight status page for this flight to view local times or setup timezone preferences in your user account.

Time Position Orientation Groundspeed Altitude Reporting Facility
EDT Latitude Longitude Course Direction KTS MPH feet Rate Location/Type
Sun 09:26:54 PM 42.0000 -87.9333 346° North 166 191 1,300  Level Chicago TRACON
Sun 09:27:48 PM 42.0333 -87.9833 312° West 185 213 3,300 1,758 Climbing Chicago TRACON
Sun 09:29:31 PM 42.1236 -88.0106 347° North 245 282 5,900 1,709 Climbing Chicago Center
Sun 09:30:00 PM 42.3625 -88.0229 340° North  Level FlightAware Approximate
Sun 09:30:33 PM 42.1989 -88.0097 360° North 270 311 8,000  Level Chicago Center
Sun 09:31:00 PM 42.4605 -88.0588 352° North  Level FlightAware Approximate
Sun 09:31:35 PM 42.2900 -88.0097 360° North 275 316 10,600  Level Chicago Center
Sun 09:32:00 PM 42.5569 -88.0967 346° North  Level FlightAware Approximate
Sun 09:32:37 PM 42.3689 -88.0044 North 280 322 12,300  Level Chicago Center
Sun 09:33:39 PM 42.4511 -88.0344 345° North 307 353 12,900 878 Climbing Chicago Center
Sun 09:34:40 PM 42.5389 -88.0669 345° North 324 373 14,100 1,113 Climbing Chicago Center
Sun 09:35:43 PM 42.6289 -88.1006 345° North 333 383 15,200 1,065 Climbing Chicago Center
Sun 09:36:44 PM 42.7208 -88.1350 345° North 343 395 16,300 976 Climbing Chicago Center
Sun 09:37:46 PM 42.8144 -88.1708 344° North 347 399 17,200 968 Climbing Chicago Center
Sun 09:38:48 PM 42.9264 -88.2122 345° North 355 409 18,300 1,113 Climbing Chicago Center
Sun 09:39:50 PM 43.0242 -88.2494 344° North 363 418 19,500 1,016 Climbing Chicago Center
Sun 09:40:52 PM 43.1194 -88.2892 343° North 361 415 20,400 878 Climbing Chicago Center
Sun 09:41:53 PM 43.2022 -88.3681 325° Northwest 358 412 21,300 927 Climbing Chicago Center
Sun 09:42:55 PM 43.2839 -88.4494 324° Northwest 359 413 22,300 968 Climbing Chicago Center
Sun 09:43:57 PM 43.3667 -88.5317 324° Northwest 361 415 23,300 968 Climbing Chicago Center
Sun 09:44:59 PM 43.4519 -88.6169 324° Northwest 366 421 24,300 976 Climbing Chicago Center
Sun 09:46:00 PM 43.5344 -88.6981 325° Northwest 363 418 25,300 829 Climbing Chicago Center
Sun 09:47:02 PM 43.6142 -88.7769 324° Northwest 355 409 26,000 726 Climbing Chicago Center
Sun 09:48:04 PM 43.7100 -88.8733 324° Northwest 360 414 26,800 1,065 Climbing Chicago Center
Sun 09:49:06 PM 43.7900 -88.9531 324° Northwest 357 411 28,200 1,220 Climbing Chicago Center
Sun 09:50:07 PM 43.8656 -89.0306 324° Northwest 341 392 29,300 1,122 Climbing Chicago Center
Sun 09:51:09 PM 43.9397 -89.1047 324° Northwest 332 382 30,500 1,234 Climbing Chicago Center
Sun 09:51:54 PM 44.0000 -89.1661 324° Northwest 323 372 31,500 1,180 Climbing Minneapolis Center
Sun 09:52:10 PM 44.0133 -89.1797 324° Northwest 328 377 31,700 923 Climbing Chicago Center
Sun 09:53:12 PM 44.0867 -89.2536 324° Northwest 327 376 32,700 1,009 Climbing Chicago Center
Sun 09:53:57 PM 44.1461 -89.3169 323° Northwest 326 375 33,500 729 Climbing Minneapolis Center
Sun 09:54:59 PM 44.2194 -89.3919 324° Northwest 327 376 34,000 244 Climbing Minneapolis Center
Sun 09:56:00 PM 44.2983 -89.4722 324° Northwest 344 396 34,000  Level Minneapolis Center
Sun 09:57:02 PM 44.3811 -89.5564 324° Northwest 364 419 34,000  Level Minneapolis Center
Sun 09:58:04 PM 44.4675 -89.6464 323° Northwest 382 440 34,000  Level Minneapolis Center
Sun 09:59:05 PM 44.5678 -89.7522 323° Northwest 387 445 34,000  Level Minneapolis Center
Sun 10:00:07 PM 44.6517 -89.8392 324° Northwest 377 434 34,000  Level Minneapolis Center
Sun 10:01:08 PM 44.7344 -89.9267 323° Northwest 373 429 34,000  Level Minneapolis Center
Sun 10:02:10 PM 44.8189 -90.0142 324° Northwest 377 434 34,000  Level Minneapolis Center
Sun 10:03:12 PM 44.8989 -90.1011 322° Northwest 377 434 34,000  Level Minneapolis Center
Sun 10:04:13 PM 44.9842 -90.1892 324° Northwest 380 437 34,000  Level Minneapolis Center
Sun 10:05:15 PM 45.0686 -90.2792 323° Northwest 379 436 34,000  Level Minneapolis Center
Sun 10:06:29 PM 45.1850 -90.4047 323° Northwest 376 433 34,000  Level Minneapolis Center
Sun 10:07:30 PM 45.2675 -90.4931 323° Northwest 373 429 34,000  Level Minneapolis Center
Sun 10:08:32 PM 45.3503 -90.5811 323° Northwest 372 428 34,000  Level Minneapolis Center
Sun 10:09:33 PM 45.4325 -90.6706 323° Northwest 370 426 34,000  Level Minneapolis Center
Sun 10:10:34 PM 45.5144 -90.7597 323° Northwest 370 426 34,000  Level Minneapolis Center
Sun 10:11:36 PM 45.5969 -90.8500 323° Northwest 372 428 34,000  Level Minneapolis Center
Sun 10:12:37 PM 45.6789 -90.9392 323° Northwest 370 426 34,000  Level Minneapolis Center
Sun 10:13:39 PM 45.7622 -91.0297 323° Northwest 374 430 34,000  Level Minneapolis Center
Sun 10:14:40 PM 45.8439 -91.1194 323° Northwest 370 426 34,000  Level Minneapolis Center
Sun 10:15:42 PM 45.9247 -91.2086 323° Northwest 368 423 34,000  Level Minneapolis Center
Sun 10:16:43 PM 46.0211 -91.3172 322° Northwest 367 422 34,000  Level Minneapolis Center
Sun 10:17:45 PM 46.1017 -91.4072 322° Northwest 366 421 34,000  Level Minneapolis Center
Sun 10:18:47 PM 46.1828 -91.4986 322° Northwest 368 423 34,000  Level Minneapolis Center
Sun 10:19:48 PM 46.2644 -91.5894 322° Northwest 370 426 34,000  Level Minneapolis Center
Sun 10:20:50 PM 46.3419 -91.6769 322° Northwest 373 429 34,000  Level Minneapolis Center
Sun 10:21:51 PM 46.4228 -91.7683 322° Northwest 372 428 34,000  Level Minneapolis Center
Sun 10:22:53 PM 46.5061 -91.8611 323° Northwest 377 434 34,000  Level Minneapolis Center
Sun 10:23:54 PM 46.6028 -91.9731 322° Northwest 374 430 34,000  Level Minneapolis Center
Sun 10:24:56 PM 46.6847 -92.0692 321° Northwest 377 434 34,000  Level Minneapolis Center
Sun 10:25:57 PM 46.7667 -92.1614 322° Northwest 375 432 34,000  Level Minneapolis Center
Sun 10:26:58 PM 46.8481 -92.2597 320° Northwest 378 435 34,000  Level Minneapolis Center
Sun 10:28:12 PM 46.9478 -92.3811 320° Northwest 387 445 34,000  Level Minneapolis Center
Sun 10:29:13 PM 47.0311 -92.4856 320° Northwest 392 451 34,000  Level Minneapolis Center
Sun 10:30:15 PM 47.1156 -92.5911 320° Northwest 398 458 34,000 -49 Level Minneapolis Center
Sun 10:31:16 PM 47.2008 -92.6953 320° Northwest 400 460 33,900  Descending Minneapolis Center
Sun 10:32:18 PM 47.2994 -92.8197 319° Northwest 394 453 34,000 49 Climbing Minneapolis Center
Sun 10:33:19 PM 47.3800 -92.9183 320° Northwest 385 443 34,000  Level Minneapolis Center
Sun 10:34:20 PM 47.4592 -93.0194 319° Northwest 384 442 34,000  Level Minneapolis Center
Sun 10:35:22 PM 47.5381 -93.1231 318° Northwest 388 447 34,000  Level Minneapolis Center
Sun 10:36:23 PM 47.6211 -93.2275 320° Northwest 394 453 34,000  Level Minneapolis Center
Sun 10:37:24 PM 47.7231 -93.3569 320° Northwest 403 464 34,000  Level Minneapolis Center
Sun 10:38:26 PM 47.8092 -93.4675 319° Northwest 409 471 34,000  Level Minneapolis Center
Sun 10:39:28 PM 47.8964 -93.5828 318° Northwest 416 479 34,000 -49 Level Minneapolis Center
Sun 10:40:29 PM 47.9828 -93.6953 319° Northwest 417 480 33,900  Descending Minneapolis Center
Sun 10:41:30 PM 48.0683 -93.8078 319° Northwest 413 475 34,000 49 Climbing Minneapolis Center
Sun 10:42:32 PM 48.1553 -93.9211 319° Northwest 414 476 34,000  Level Minneapolis Center
Sun 10:43:33 PM 48.2403 -94.0339 319° Northwest 412 474 34,000  Level Minneapolis Center
Sun 10:44:34 PM 48.3289 -94.1494 319° Northwest 419 482 34,000  Level Minneapolis Center
Sun 10:45:36 PM 48.4322 -94.2889 318° Northwest 418 481 34,000  Level Minneapolis Center
Sun 10:46:37 PM 48.5203 -94.4042 319° Northwest 419 482 34,000  Level Minneapolis Center
Sun 10:47:38 PM 48.6075 -94.5228 318° Northwest 422 486 34,000  Level Minneapolis Center
Sun 10:48:40 PM 48.6842 -94.6553 311° West 422 486 34,000 -634 Level Minneapolis Center
Sun 10:49:41 PM 48.7492 -94.8089 303° West 430 495 32,700 -1,377 Descending Minneapolis Center
Sun 10:50:42 PM 48.8156 -94.9633 303° West 435 501 31,200 -1,805 Descending Minneapolis Center
Sun 10:51:44 PM 48.8825 -95.1231 303° West 446 513 29,000 -2,439 Descending Minneapolis Center
Sun 10:52:45 PM 48.9483 -95.2775 303° West 441 507 26,200 -2,923 Descending Minneapolis Center
Sun 10:53:41 PM 49.0000 -95.4167 300° West 430 495 23,300 -2,974 Descending Winnipeg Center
Sun 10:54:40 PM 49.0667 -95.5833 301° West 420 483 20,500 -2,521 Descending Winnipeg Center
Sun 10:55:40 PM 49.1167 -95.7167 300° West 400 460 18,300 -1,900 Descending Winnipeg Center
Sun 10:56:40 PM 49.1833 -95.8667 304° West 400 460 16,700 -1,550 Descending Winnipeg Center
Sun 10:57:40 PM 49.2333 -96.0000 300° West 390 449 15,200 -1,350 Descending Winnipeg Center
Sun 10:58:40 PM 49.2833 -96.1500 297° West 380 437 14,000 -1,240 Descending Winnipeg Center
Sun 10:59:41 PM 49.3667 -96.2667 318° Northwest 370 426 12,700 -1,250 Descending Winnipeg Center
Sun 11:00:40 PM 49.4000 -96.4000 291° West 340 391 11,500 -1,311 Descending Winnipeg Center
Sun 11:01:40 PM 49.4500 -96.5000 308° West 320 368 10,100 -1,250 Descending Winnipeg Center
Sun 11:02:40 PM 49.5000 -96.6000 308° West 280 322 9,000 -1,339 Descending Winnipeg Center
Sun 11:03:41 PM 49.5333 -96.7167 294° West 280 322 7,400 -1,500 Descending Winnipeg Center
Sun 11:04:40 PM 49.5667 -96.8167 297° West 260 299 6,000 -1,210 Descending Winnipeg Center
Sun 11:05:40 PM 49.6000 -96.9167 297° West 260 299 5,000 -1,050 Descending Winnipeg Center
Sun 11:06:40 PM 49.6500 -97.0000 313° West 250 288 3,900 -1,000 Descending Winnipeg Center
Sun 11:07:40 PM 49.6833 -97.1000 297° West 250 288 3,000 -496 Descending Winnipeg Center
Sun 11:08:41 PM 49.7167 -97.1667 308° West 240 276 2,900 -98 Descending Winnipeg Center

Login

Don't have an account? Register now (free) for customized features, flight alerts, and more!